Terminal Aerodrome Forecast
Issued by NWS Louisville, KY

Home | Current Version | Previous Version | Text Only | Print | Product List | Glossary On
Versions: 1 2 3 4 5 6 7 8 9 10 11 12 13 14 15 16 17 18 19 20 21
698
FTUS43 KLMK 220237 AAA
TAFBWG
TAF AMD
KBWG 220237Z 2203/2224 14005KT P6SM -SHRA OVC035
     FM220430 15004KT 5SM -SHRA BR BKN025
     FM220800 VRB03KT 4SM -DZ BR BKN015
     FM221700 18006KT P6SM BKN025=

USA.gov is the U.S. government's official web portal to all federal, state and local government web resources and services.